sensor_id;sensor_type;location;lat;lon;timestamp;temperature;humidity
74359;DHT22;62792;46.236;6.040;2022-09-03T00:04:51;24.10;72.20
74359;DHT22;62792;46.236;6.040;2022-09-03T00:09:57;24.10;73.00
74359;DHT22;62792;46.236;6.040;2022-09-03T00:15:03;24.10;73.40
74359;DHT22;62792;46.236;6.040;2022-09-03T00:20:07;24.30;73.20
74359;DHT22;62792;46.236;6.040;2022-09-03T00:25:14;24.40;73.40
74359;DHT22;62792;46.236;6.040;2022-09-03T00:30:18;24.40;73.40
74359;DHT22;62792;46.236;6.040;2022-09-03T00:35:24;24.40;73.70
74359;DHT22;62792;46.236;6.040;2022-09-03T00:40:34;24.40;73.50
74359;DHT22;62792;46.236;6.040;2022-09-03T00:45:38;24.40;73.80
74359;DHT22;62792;46.236;6.040;2022-09-03T00:50:49;24.40;73.90
74359;DHT22;62792;46.236;6.040;2022-09-03T00:55:59;24.30;74.40
74359;DHT22;62792;46.236;6.040;2022-09-03T01:01:06;24.30;74.60
74359;DHT22;62792;46.236;6.040;2022-09-03T01:06:12;24.40;74.30
74359;DHT22;62792;46.236;6.040;2022-09-03T01:11:22;24.50;74.40
74359;DHT22;62792;46.236;6.040;2022-09-03T01:16:30;24.40;74.60
74359;DHT22;62792;46.236;6.040;2022-09-03T01:21:42;24.40;74.70
74359;DHT22;62792;46.236;6.040;2022-09-03T01:26:53;24.40;74.70
74359;DHT22;62792;46.236;6.040;2022-09-03T01:32:01;24.40;74.70
74359;DHT22;62792;46.236;6.040;2022-09-03T01:37:08;24.40;75.10
74359;DHT22;62792;46.236;6.040;2022-09-03T01:42:15;24.40;75.30
74359;DHT22;62792;46.236;6.040;2022-09-03T01:47:27;24.40;75.20
74359;DHT22;62792;46.236;6.040;2022-09-03T01:52:40;24.50;75.40
74359;DHT22;62792;46.236;6.040;2022-09-03T01:57:45;24.40;75.60
74359;DHT22;62792;46.236;6.040;2022-09-03T02:02:51;24.50;75.70
74359;DHT22;62792;46.236;6.040;2022-09-03T02:07:55;24.40;75.40
74359;DHT22;62792;46.236;6.040;2022-09-03T02:12:59;24.50;75.30
74359;DHT22;62792;46.236;6.040;2022-09-03T02:18:04;24.50;75.60
74359;DHT22;62792;46.236;6.040;2022-09-03T02:23:07;24.40;75.60
74359;DHT22;62792;46.236;6.040;2022-09-03T02:28:10;24.40;75.80
74359;DHT22;62792;46.236;6.040;2022-09-03T02:33:19;24.40;75.80
74359;DHT22;62792;46.236;6.040;2022-09-03T02:38:23;24.40;76.10
74359;DHT22;62792;46.236;6.040;2022-09-03T02:43:29;24.40;76.00
74359;DHT22;62792;46.236;6.040;2022-09-03T02:48:33;24.40;76.10
74359;DHT22;62792;46.236;6.040;2022-09-03T02:53:36;24.40;75.80
74359;DHT22;62792;46.236;6.040;2022-09-03T02:58:39;24.30;76.20
74359;DHT22;62792;46.236;6.040;2022-09-03T03:03:43;24.40;75.90
74359;DHT22;62792;46.236;6.040;2022-09-03T03:08:46;24.40;76.00
74359;DHT22;62792;46.236;6.040;2022-09-03T03:13:50;24.30;76.00
74359;DHT22;62792;46.236;6.040;2022-09-03T03:18:56;24.30;76.10
74359;DHT22;62792;46.236;6.040;2022-09-03T03:23:59;24.30;76.10
74359;DHT22;62792;46.236;6.040;2022-09-03T03:29:03;24.30;76.00
74359;DHT22;62792;46.236;6.040;2022-09-03T03:34:07;24.30;76.10
74359;DHT22;62792;46.236;6.040;2022-09-03T03:39:10;24.30;75.90
74359;DHT22;62792;46.236;6.040;2022-09-03T03:44:13;24.30;75.80
74359;DHT22;62792;46.236;6.040;2022-09-03T03:49:17;24.30;75.90
74359;DHT22;62792;46.236;6.040;2022-09-03T03:54:19;24.30;76.10
74359;DHT22;62792;46.236;6.040;2022-09-03T03:59:22;24.30;76.10
74359;DHT22;62792;46.236;6.040;2022-09-03T04:04:26;24.40;76.00
74359;DHT22;62792;46.236;6.040;2022-09-03T04:09:29;24.20;75.80
74359;DHT22;62792;46.236;6.040;2022-09-03T04:14:32;24.20;75.90
74359;DHT22;62792;46.236;6.040;2022-09-03T04:19:36;24.30;75.50
74359;DHT22;62792;46.236;6.040;2022-09-03T04:24:39;24.20;75.90
74359;DHT22;62792;46.236;6.040;2022-09-03T04:29:42;24.30;76.10
74359;DHT22;62792;46.236;6.040;2022-09-03T04:34:46;24.20;76.10
74359;DHT22;62792;46.236;6.040;2022-09-03T04:39:49;24.30;76.10
74359;DHT22;62792;46.236;6.040;2022-09-03T04:44:52;24.30;76.10
74359;DHT22;62792;46.236;6.040;2022-09-03T04:49:56;24.20;76.20
74359;DHT22;62792;46.236;6.040;2022-09-03T04:54:58;24.30;76.10
74359;DHT22;62792;46.236;6.040;2022-09-03T05:00:03;24.30;76.10
74359;DHT22;62792;46.236;6.040;2022-09-03T05:05:08;24.20;76.40
74359;DHT22;62792;46.236;6.040;2022-09-03T05:10:11;24.30;76.20
74359;DHT22;62792;46.236;6.040;2022-09-03T05:15:20;24.20;76.40
74359;DHT22;62792;46.236;6.040;2022-09-03T05:20:24;24.20;76.40
74359;DHT22;62792;46.236;6.040;2022-09-03T05:25:28;24.20;76.70
74359;DHT22;62792;46.236;6.040;2022-09-03T05:30:32;24.20;76.50
74359;DHT22;62792;46.236;6.040;2022-09-03T05:35:36;24.10;76.70
74359;DHT22;62792;46.236;6.040;2022-09-03T05:40:41;24.20;76.60
74359;DHT22;62792;46.236;6.040;2022-09-03T05:45:44;24.20;76.70
74359;DHT22;62792;46.236;6.040;2022-09-03T05:50:48;24.20;76.90
74359;DHT22;62792;46.236;6.040;2022-09-03T05:55:53;24.20;76.70
74359;DHT22;62792;46.236;6.040;2022-09-03T06:00:56;24.30;76.80
74359;DHT22;62792;46.236;6.040;2022-09-03T06:06:00;24.20;76.60
74359;DHT22;62792;46.236;6.040;2022-09-03T06:11:05;24.20;76.60
74359;DHT22;62792;46.236;6.040;2022-09-03T06:16:08;24.20;76.90
74359;DHT22;62792;46.236;6.040;2022-09-03T06:21:12;24.30;76.90
74359;DHT22;62792;46.236;6.040;2022-09-03T06:26:15;24.20;76.90
74359;DHT22;62792;46.236;6.040;2022-09-03T06:31:18;24.20;77.20
74359;DHT22;62792;46.236;6.040;2022-09-03T06:36:22;24.20;77.20
74359;DHT22;62792;46.236;6.040;2022-09-03T06:41:28;24.20;77.10
74359;DHT22;62792;46.236;6.040;2022-09-03T06:46:32;24.20;76.90
74359;DHT22;62792;46.236;6.040;2022-09-03T06:51:37;24.10;76.90
74359;DHT22;62792;46.236;6.040;2022-09-03T06:56:40;24.20;76.90
74359;DHT22;62792;46.236;6.040;2022-09-03T07:01:43;24.20;76.70
74359;DHT22;62792;46.236;6.040;2022-09-03T07:06:48;24.20;76.80
74359;DHT22;62792;46.236;6.040;2022-09-03T07:11:51;24.20;76.50
74359;DHT22;62792;46.236;6.040;2022-09-03T07:16:53;24.30;76.40
74359;DHT22;62792;46.236;6.040;2022-09-03T07:21:57;24.30;76.60
74359;DHT22;62792;46.236;6.040;2022-09-03T07:27:01;24.20;76.60
74359;DHT22;62792;46.236;6.040;2022-09-03T07:32:04;24.30;76.80
74359;DHT22;62792;46.236;6.040;2022-09-03T07:37:08;24.20;76.50
74359;DHT22;62792;46.236;6.040;2022-09-03T07:42:11;24.20;76.40
74359;DHT22;62792;46.236;6.040;2022-09-03T07:47:14;24.30;76.40
74359;DHT22;62792;46.236;6.040;2022-09-03T07:52:28;24.30;76.30
74359;DHT22;62792;46.236;6.040;2022-09-03T07:57:31;24.20;76.20
74359;DHT22;62792;46.236;6.040;2022-09-03T08:02:34;24.30;76.30
74359;DHT22;62792;46.236;6.040;2022-09-03T08:07:38;24.30;76.10
74359;DHT22;62792;46.236;6.040;2022-09-03T08:12:42;24.30;76.40
74359;DHT22;62792;46.236;6.040;2022-09-03T08:17:44;24.40;76.20
74359;DHT22;62792;46.236;6.040;2022-09-03T08:22:48;24.50;76.20
74359;DHT22;62792;46.236;6.040;2022-09-03T08:27:51;24.40;75.20
74359;DHT22;62792;46.236;6.040;2022-09-03T08:32:54;24.50;75.20
74359;DHT22;62792;46.236;6.040;2022-09-03T08:37:58;24.60;75.00
74359;DHT22;62792;46.236;6.040;2022-09-03T08:43:07;24.60;74.80
74359;DHT22;62792;46.236;6.040;2022-09-03T08:48:12;24.60;74.90
74359;DHT22;62792;46.236;6.040;2022-09-03T08:53:18;24.50;75.00
74359;DHT22;62792;46.236;6.040;2022-09-03T08:58:24;24.60;75.10
74359;DHT22;62792;46.236;6.040;2022-09-03T09:03:40;24.80;75.10
74359;DHT22;62792;46.236;6.040;2022-09-03T09:08:47;24.70;75.10
74359;DHT22;62792;46.236;6.040;2022-09-03T09:13:56;24.70;75.00
74359;DHT22;62792;46.236;6.040;2022-09-03T09:19:04;24.70;75.00
74359;DHT22;62792;46.236;6.040;2022-09-03T09:24:15;24.60;74.90
74359;DHT22;62792;46.236;6.040;2022-09-03T09:29:24;24.60;74.90
74359;DHT22;62792;46.236;6.040;2022-09-03T09:34:27;24.80;74.60
74359;DHT22;62792;46.236;6.040;2022-09-03T09:39:31;24.70;74.60
74359;DHT22;62792;46.236;6.040;2022-09-03T09:44:34;24.80;74.50
74359;DHT22;62792;46.236;6.040;2022-09-03T09:49:49;24.90;74.50
74359;DHT22;62792;46.236;6.040;2022-09-03T09:55:04;25.00;74.30
74359;DHT22;62792;46.236;6.040;2022-09-03T10:00:10;24.90;75.00
74359;DHT22;62792;46.236;6.040;2022-09-03T10:05:14;25.00;75.20
74359;DHT22;62792;46.236;6.040;2022-09-03T10:10:19;25.00;75.10
74359;DHT22;62792;46.236;6.040;2022-09-03T10:15:23;24.90;75.00
74359;DHT22;62792;46.236;6.040;2022-09-03T10:20:29;25.10;74.90
74359;DHT22;62792;46.236;6.040;2022-09-03T10:25:37;25.10;74.80
74359;DHT22;62792;46.236;6.040;2022-09-03T10:30:45;25.00;74.90
74359;DHT22;62792;46.236;6.040;2022-09-03T10:35:51;25.00;75.10
74359;DHT22;62792;46.236;6.040;2022-09-03T10:40:58;25.20;74.90
74359;DHT22;62792;46.236;6.040;2022-09-03T10:46:06;25.20;74.50
74359;DHT22;62792;46.236;6.040;2022-09-03T10:51:11;25.10;74.90
74359;DHT22;62792;46.236;6.040;2022-09-03T10:56:18;25.10;75.00
74359;DHT22;62792;46.236;6.040;2022-09-03T11:01:25;25.20;75.40
74359;DHT22;62792;46.236;6.040;2022-09-03T11:06:29;25.30;75.30
74359;DHT22;62792;46.236;6.040;2022-09-03T11:11:39;25.40;74.60
74359;DHT22;62792;46.236;6.040;2022-09-03T11:16:45;25.50;75.00
74359;DHT22;62792;46.236;6.040;2022-09-03T11:21:49;25.40;75.00
74359;DHT22;62792;46.236;6.040;2022-09-03T11:26:54;25.40;75.40
74359;DHT22;62792;46.236;6.040;2022-09-03T11:31:59;25.50;75.40
74359;DHT22;62792;46.236;6.040;2022-09-03T11:37:03;25.60;74.90
74359;DHT22;62792;46.236;6.040;2022-09-03T11:42:10;25.60;75.40
74359;DHT22;62792;46.236;6.040;2022-09-03T11:47:14;25.60;75.30
74359;DHT22;62792;46.236;6.040;2022-09-03T11:52:24;25.60;75.10
74359;DHT22;62792;46.236;6.040;2022-09-03T11:57:29;25.60;74.80
74359;DHT22;62792;46.236;6.040;2022-09-03T12:02:33;25.60;74.70
74359;DHT22;62792;46.236;6.040;2022-09-03T12:07:42;25.70;74.60
74359;DHT22;62792;46.236;6.040;2022-09-03T12:12:58;25.60;75.50
74359;DHT22;62792;46.236;6.040;2022-09-03T12:18:05;25.40;75.40
74359;DHT22;62792;46.236;6.040;2022-09-03T12:23:25;25.40;75.60
74359;DHT22;62792;46.236;6.040;2022-09-03T12:28:30;25.40;76.40
74359;DHT22;62792;46.236;6.040;2022-09-03T12:33:39;25.30;76.40
74359;DHT22;62792;46.236;6.040;2022-09-03T12:38:42;25.30;76.50
74359;DHT22;62792;46.236;6.040;2022-09-03T12:44:06;25.40;76.60
74359;DHT22;62792;46.236;6.040;2022-09-03T12:49:13;25.40;76.00
74359;DHT22;62792;46.236;6.040;2022-09-03T12:54:32;25.40;75.20
74359;DHT22;62792;46.236;6.040;2022-09-03T12:59:36;25.60;74.50
74359;DHT22;62792;46.236;6.040;2022-09-03T13:04:40;25.60;74.30
74359;DHT22;62792;46.236;6.040;2022-09-03T13:09:43;25.70;74.10
74359;DHT22;62792;46.236;6.040;2022-09-03T13:14:49;25.60;73.80
74359;DHT22;62792;46.236;6.040;2022-09-03T13:19:58;25.70;73.30
74359;DHT22;62792;46.236;6.040;2022-09-03T13:25:11;25.80;72.90
74359;DHT22;62792;46.236;6.040;2022-09-03T13:30:18;25.80;72.50
74359;DHT22;62792;46.236;6.040;2022-09-03T13:35:25;25.80;72.70
74359;DHT22;62792;46.236;6.040;2022-09-03T13:40:32;25.80;72.90
74359;DHT22;62792;46.236;6.040;2022-09-03T13:45:38;25.90;72.60
74359;DHT22;62792;46.236;6.040;2022-09-03T13:50:44;26.00;72.40
74359;DHT22;62792;46.236;6.040;2022-09-03T13:55:50;26.20;72.10
74359;DHT22;62792;46.236;6.040;2022-09-03T14:01:03;26.30;72.00
74359;DHT22;62792;46.236;6.040;2022-09-03T14:06:08;26.50;70.60
74359;DHT22;62792;46.236;6.040;2022-09-03T14:11:18;26.60;70.00
74359;DHT22;62792;46.236;6.040;2022-09-03T14:16:27;26.70;69.90
74359;DHT22;62792;46.236;6.040;2022-09-03T14:21:32;26.70;69.60
74359;DHT22;62792;46.236;6.040;2022-09-03T14:26:47;26.70;69.20
74359;DHT22;62792;46.236;6.040;2022-09-03T14:32:01;26.60;69.30
74359;DHT22;62792;46.236;6.040;2022-09-03T14:37:13;26.60;69.10
74359;DHT22;62792;46.236;6.040;2022-09-03T14:42:26;26.60;68.70
74359;DHT22;62792;46.236;6.040;2022-09-03T14:47:36;26.70;69.00
74359;DHT22;62792;46.236;6.040;2022-09-03T14:52:51;26.60;68.90
74359;DHT22;62792;46.236;6.040;2022-09-03T15:03:24;26.50;67.90
74359;DHT22;62792;46.236;6.040;2022-09-03T15:08:37;26.40;67.80
74359;DHT22;62792;46.236;6.040;2022-09-03T15:13:44;26.30;69.40
74359;DHT22;62792;46.236;6.040;2022-09-03T15:18:57;26.30;69.80
74359;DHT22;62792;46.236;6.040;2022-09-03T15:24:05;26.20;69.90
74359;DHT22;62792;46.236;6.040;2022-09-03T15:29:16;26.20;70.30
74359;DHT22;62792;46.236;6.040;2022-09-03T15:34:29;26.20;70.50
74359;DHT22;62792;46.236;6.040;2022-09-03T15:39:35;26.20;70.50
74359;DHT22;62792;46.236;6.040;2022-09-03T15:44:40;26.10;71.20
74359;DHT22;62792;46.236;6.040;2022-09-03T15:49:54;26.10;71.20
74359;DHT22;62792;46.236;6.040;2022-09-03T15:55:03;26.10;71.70
74359;DHT22;62792;46.236;6.040;2022-09-03T16:00:09;26.00;72.70
74359;DHT22;62792;46.236;6.040;2022-09-03T16:05:15;25.90;73.10
74359;DHT22;62792;46.236;6.040;2022-09-03T16:10:19;25.80;74.30
74359;DHT22;62792;46.236;6.040;2022-09-03T16:15:26;25.70;74.70
74359;DHT22;62792;46.236;6.040;2022-09-03T16:20:32;25.60;75.40
74359;DHT22;62792;46.236;6.040;2022-09-03T16:25:43;25.80;74.90
74359;DHT22;62792;46.236;6.040;2022-09-03T16:30:50;25.90;74.20
74359;DHT22;62792;46.236;6.040;2022-09-03T16:35:57;25.90;74.60
74359;DHT22;62792;46.236;6.040;2022-09-03T16:41:09;25.90;74.90
74359;DHT22;62792;46.236;6.040;2022-09-03T16:46:18;26.00;74.20
74359;DHT22;62792;46.236;6.040;2022-09-03T16:51:26;26.40;72.30
74359;DHT22;62792;46.236;6.040;2022-09-03T16:56:36;26.60;72.40
74359;DHT22;62792;46.236;6.040;2022-09-03T17:01:47;26.70;72.40
74359;DHT22;62792;46.236;6.040;2022-09-03T17:06:58;26.80;72.20
74359;DHT22;62792;46.236;6.040;2022-09-03T17:12:07;26.60;72.60
74359;DHT22;62792;46.236;6.040;2022-09-03T17:17:16;26.60;73.00
74359;DHT22;62792;46.236;6.040;2022-09-03T17:22:31;26.40;73.00
74359;DHT22;62792;46.236;6.040;2022-09-03T17:27:44;26.40;73.30
74359;DHT22;62792;46.236;6.040;2022-09-03T17:38:21;26.30;74.30
74359;DHT22;62792;46.236;6.040;2022-09-03T17:43:26;26.20;74.40
74359;DHT22;62792;46.236;6.040;2022-09-03T17:48:39;26.10;74.00
74359;DHT22;62792;46.236;6.040;2022-09-03T17:53:47;25.90;73.80
74359;DHT22;62792;46.236;6.040;2022-09-03T17:58:54;26.00;74.00
74359;DHT22;62792;46.236;6.040;2022-09-03T18:04:10;25.90;74.20
74359;DHT22;62792;46.236;6.040;2022-09-03T18:09:22;25.80;74.30
74359;DHT22;62792;46.236;6.040;2022-09-03T18:14:29;25.70;74.70
74359;DHT22;62792;46.236;6.040;2022-09-03T18:19:36;25.60;74.40
74359;DHT22;62792;46.236;6.040;2022-09-03T18:24:59;25.70;74.40
74359;DHT22;62792;46.236;6.040;2022-09-03T18:30:20;25.60;74.60
74359;DHT22;62792;46.236;6.040;2022-09-03T18:35:40;25.60;74.70
74359;DHT22;62792;46.236;6.040;2022-09-03T18:41:04;25.50;75.20
74359;DHT22;62792;46.236;6.040;2022-09-03T18:46:27;25.50;75.40
74359;DHT22;62792;46.236;6.040;2022-09-03T18:52:13;25.30;75.50
74359;DHT22;62792;46.236;6.040;2022-09-03T18:57:37;25.40;75.30
74359;DHT22;62792;46.236;6.040;2022-09-03T19:03:03;25.30;74.80
74359;DHT22;62792;46.236;6.040;2022-09-03T19:08:27;25.30;75.10
74359;DHT22;62792;46.236;6.040;2022-09-03T19:13:52;25.30;75.30
74359;DHT22;62792;46.236;6.040;2022-09-03T19:25:11;25.20;75.30
74359;DHT22;62792;46.236;6.040;2022-09-03T19:30:35;25.20;75.70
74359;DHT22;62792;46.236;6.040;2022-09-03T19:35:59;25.20;75.20
74359;DHT22;62792;46.236;6.040;2022-09-03T19:41:24;25.10;75.30
74359;DHT22;62792;46.236;6.040;2022-09-03T19:46:48;25.10;75.40
74359;DHT22;62792;46.236;6.040;2022-09-03T19:52:11;25.10;75.30
74359;DHT22;62792;46.236;6.040;2022-09-03T19:57:33;25.00;75.30
74359;DHT22;62792;46.236;6.040;2022-09-03T20:02:57;25.00;75.40
74359;DHT22;62792;46.236;6.040;2022-09-03T20:08:18;25.00;75.50
74359;DHT22;62792;46.236;6.040;2022-09-03T20:13:40;25.00;75.30
74359;DHT22;62792;46.236;6.040;2022-09-03T20:19:05;25.00;75.10
74359;DHT22;62792;46.236;6.040;2022-09-03T20:24:12;24.90;75.40
74359;DHT22;62792;46.236;6.040;2022-09-03T20:29:24;24.90;75.40
74359;DHT22;62792;46.236;6.040;2022-09-03T20:34:33;24.90;75.50
74359;DHT22;62792;46.236;6.040;2022-09-03T20:39:46;25.00;75.30
74359;DHT22;62792;46.236;6.040;2022-09-03T20:44:57;24.90;75.30
74359;DHT22;62792;46.236;6.040;2022-09-03T20:50:08;24.90;75.70
74359;DHT22;62792;46.236;6.040;2022-09-03T20:55:15;24.80;75.40
74359;DHT22;62792;46.236;6.040;2022-09-03T21:00:19;24.80;75.80
74359;DHT22;62792;46.236;6.040;2022-09-03T21:05:26;24.80;75.80
74359;DHT22;62792;46.236;6.040;2022-09-03T21:10:31;24.70;75.80
74359;DHT22;62792;46.236;6.040;2022-09-03T21:15:37;24.70;75.80
74359;DHT22;62792;46.236;6.040;2022-09-03T21:20:46;24.70;75.50
74359;DHT22;62792;46.236;6.040;2022-09-03T21:25:52;24.70;75.70
74359;DHT22;62792;46.236;6.040;2022-09-03T21:30:57;24.70;75.80
74359;DHT22;62792;46.236;6.040;2022-09-03T21:36:04;24.70;75.70
74359;DHT22;62792;46.236;6.040;2022-09-03T21:41:13;24.60;75.70
74359;DHT22;62792;46.236;6.040;2022-09-03T21:46:18;24.70;75.80
74359;DHT22;62792;46.236;6.040;2022-09-03T21:51:25;24.60;75.80
74359;DHT22;62792;46.236;6.040;2022-09-03T22:01:52;24.60;75.80
74359;DHT22;62792;46.236;6.040;2022-09-03T22:07:01;24.50;76.10
74359;DHT22;62792;46.236;6.040;2022-09-03T22:12:07;24.50;75.80
74359;DHT22;62792;46.236;6.040;2022-09-03T22:17:15;24.40;76.10
74359;DHT22;62792;46.236;6.040;2022-09-03T22:22:22;24.30;76.70
74359;DHT22;62792;46.236;6.040;2022-09-03T22:27:28;24.30;76.70
74359;DHT22;62792;46.236;6.040;2022-09-03T22:32:35;24.50;76.20
74359;DHT22;62792;46.236;6.040;2022-09-03T22:37:47;24.40;76.50
74359;DHT22;62792;46.236;6.040;2022-09-03T22:42:56;24.30;76.60
74359;DHT22;62792;46.236;6.040;2022-09-03T22:48:05;24.40;76.50
74359;DHT22;62792;46.236;6.040;2022-09-03T22:53:15;24.30;76.30
74359;DHT22;62792;46.236;6.040;2022-09-03T22:58:21;24.40;76.20
74359;DHT22;62792;46.236;6.040;2022-09-03T23:03:30;24.30;76.00
74359;DHT22;62792;46.236;6.040;2022-09-03T23:08:40;24.30;76.00
74359;DHT22;62792;46.236;6.040;2022-09-03T23:13:45;24.20;75.60
74359;DHT22;62792;46.236;6.040;2022-09-03T23:18:50;24.00;75.60
74359;DHT22;62792;46.236;6.040;2022-09-03T23:23:56;24.00;75.80
74359;DHT22;62792;46.236;6.040;2022-09-03T23:29:02;24.00;75.60
74359;DHT22;62792;46.236;6.040;2022-09-03T23:34:06;24.00;75.50
74359;DHT22;62792;46.236;6.040;2022-09-03T23:39:12;23.90;75.80
74359;DHT22;62792;46.236;6.040;2022-09-03T23:44:27;24.00;75.90
74359;DHT22;62792;46.236;6.040;2022-09-03T23:49:36;24.10;75.40
74359;DHT22;62792;46.236;6.040;2022-09-03T23:54:42;24.10;74.40
74359;DHT22;62792;46.236;6.040;2022-09-03T23:59:52;24.20;74.50
